Time;durP1;ratioP1;P1;durP2;ratioP2;P2;SDS_P1;SDS_P2;PMS_P1;PMS_P2;Temp;Humidity;BMP_temperature;BMP_pressure;BME280_temperature;BME280_humidity;BME280_pressure;Samples;Min_cycle;Max_cycle;Signal;HPM_P1;HPM_P2
2022/05/31 00:01:04;;;;;;;21.75;11.35;;;;;;;21.37;57.77;99252.72;4992981;28;20504;-77
2022/05/31 00:03:29;;;;;;;11.93;10.45;;;;;;;21.12;58.89;99250.00;5011235;28;20037;-77
2022/05/31 00:05:55;;;;;;;15.27;10.63;;;;;;;21.15;58.66;99252.00;5010591;28;20044;-77
2022/05/31 00:08:23;;;;;;;17.88;10.90;;;;;;;21.42;58.22;99266.50;5012662;28;20488;-79
2022/05/31 00:10:48;;;;;;;21.88;10.82;;;;;;;21.25;58.85;99258.88;4997310;28;20041;-78
2022/05/31 00:13:14;;;;;;;19.65;11.80;;;;;;;20.64;60.44;99259.88;4996757;28;20022;-78
2022/05/31 00:15:40;;;;;;;17.67;11.35;;;;;;;20.24;62.91;99266.38;5007917;28;20481;-77
2022/05/31 00:18:08;;;;;;;19.23;12.85;;;;;;;20.43;62.48;99279.34;5000703;28;20029;-77
2022/05/31 00:20:34;;;;;;;19.08;11.55;;;;;;;20.65;61.42;99261.50;4993320;28;20124;-78
2022/05/31 00:23:00;;;;;;;17.48;11.57;;;;;;;20.68;61.69;99275.66;5005144;28;20485;-79
2022/05/31 00:25:26;;;;;;;22.10;11.43;;;;;;;20.47;62.51;99268.81;4994968;28;20041;-78
2022/05/31 00:27:51;;;;;;;16.08;11.07;;;;;;;20.65;61.19;99255.81;5011091;28;20033;-78
2022/05/31 00:30:17;;;;;;;20.73;11.90;;;;;;;20.86;61.08;99261.44;5012360;28;20036;-78
2022/05/31 00:32:49;;;;;;;22.50;11.32;;;;;;;21.01;60.70;99292.69;5010707;28;20030;-78
2022/05/31 00:35:25;;;;;;;18.75;13.07;;;;;;;20.96;60.90;99295.94;5008292;28;20524;-78
2022/05/31 00:38:00;;;;;;;14.10;10.10;;;;;;;20.86;60.11;99295.53;4998663;28;20495;-78
2022/05/31 00:40:34;;;;;;;15.60;11.07;;;;;;;20.77;59.73;99278.09;5031690;28;20033;-79
2022/05/31 00:43:11;;;;;;;15.75;10.73;;;;;;;20.82;59.23;99277.69;5030023;28;20043;-78
2022/05/31 00:45:59;;;;;;;16.25;11.27;;;;;;;20.65;59.79;99287.06;5028580;28;20037;-77
2022/05/31 00:48:33;;;;;;;15.23;11.48;;;;;;;20.69;59.58;99287.84;5011071;28;20056;-78
2022/05/31 00:51:09;;;;;;;15.77;11.07;;;;;;;20.68;60.02;99272.03;5019905;28;20040;-78
2022/05/31 00:53:47;;;;;;;15.45;10.77;;;;;;;20.71;59.82;99268.38;5028930;28;20484;-77
2022/05/31 00:56:25;;;;;;;21.15;11.48;;;;;;;20.71;59.70;99274.03;5014350;28;20041;-77
2022/05/31 00:58:58;;;;;;;24.23;11.85;;;;;;;20.73;59.67;99272.41;5013775;28;20401;-78
2022/05/31 01:01:28;;;;;;;14.65;11.27;;;;;;;20.82;59.88;99268.38;5022281;28;20036;-78
2022/05/31 01:03:55;;;;;;;19.25;12.93;;;;;;;20.80;60.15;99282.13;5025202;28;20029;-78
2022/05/31 01:06:24;;;;;;;18.60;12.15;;;;;;;20.29;61.97;99263.16;4994247;28;20042;-79
2022/05/31 01:08:55;;;;;;;15.52;11.02;;;;;;;20.38;62.11;99278.97;5010300;28;20025;-78
2022/05/31 01:11:23;;;;;;;19.13;11.20;;;;;;;20.30;61.46;99259.09;5027946;28;20098;-77
2022/05/31 01:13:49;;;;;;;20.55;11.32;;;;;;;20.37;61.36;99265.97;5029290;28;20072;-78
2022/05/31 01:16:16;;;;;;;15.75;10.73;;;;;;;20.47;60.75;99268.81;5021417;28;20076;-78
2022/05/31 01:18:43;;;;;;;17.67;10.80;;;;;;;20.47;60.43;99287.88;5014549;28;20033;-77
2022/05/31 01:21:09;;;;;;;14.85;9.90;;;;;;;20.32;60.68;99265.19;5015758;28;20026;-77
2022/05/31 01:24:13;;;;;;;13.52;10.18;;;;;;;20.53;60.81;99297.63;5015570;28;20033;-78
2022/05/31 01:26:51;;;;;;;24.25;11.63;;;;;;;19.84;61.83;99274.84;5012190;28;20374;-77
2022/05/31 01:29:29;;;;;;;17.35;10.95;;;;;;;19.89;61.79;99282.16;5030836;28;20037;-78
2022/05/31 01:32:01;;;;;;;16.45;10.70;;;;;;;20.21;61.11;99298.44;5016386;28;20033;-77
2022/05/31 01:34:59;;;;;;;18.98;10.75;;;;;;;20.14;61.00;99289.91;5033435;28;20079;-78
2022/05/31 01:37:35;;;;;;;16.73;11.45;;;;;;;19.58;63.77;99287.38;5033786;28;20048;-78
2022/05/31 01:40:10;;;;;;;18.63;10.95;;;;;;;18.61;67.76;99283.69;5033894;28;20108;-77
2022/05/31 01:42:42;;;;;;;18.23;12.45;;;;;;;18.76;67.30;99286.59;5026110;28;20492;-77
2022/05/31 01:45:19;;;;;;;21.15;11.70;;;;;;;18.72;67.88;99308.44;5031842;28;20057;-77
2022/05/31 01:47:57;;;;;;;17.02;12.18;;;;;;;17.64;70.62;99286.47;5001382;28;20033;-77
2022/05/31 01:50:31;;;;;;;18.10;12.32;;;;;;;17.43;71.74;99292.66;5033175;28;20029;-78
2022/05/31 01:53:00;;;;;;;22.13;13.73;;;;;;;17.31;71.64;99293.75;5033827;28;20049;-78
2022/05/31 01:55:33;;;;;;;27.02;13.63;;;;;;;16.64;74.53;99290.44;5016304;28;20029;-78
2022/05/31 01:58:02;;;;;;;20.65;12.75;;;;;;;16.40;75.83;99295.31;5034509;28;20026;-78
2022/05/31 02:00:29;;;;;;;24.02;13.80;;;;;;;16.73;75.19;99319.22;5034921;28;20491;-78
2022/05/31 02:02:59;;;;;;;16.70;10.50;;;;;;;16.79;75.41;99319.69;5034290;28;20033;-77
2022/05/31 02:05:25;;;;;;;27.00;13.70;;;;;;;16.86;75.50;99333.91;5033325;28;20041;-78
2022/05/31 02:08:10;;;;;;;18.38;11.60;;;;;;;16.66;75.83;99331.22;5032999;28;20029;-78
2022/05/31 02:10:41;;;;;;;18.75;11.05;;;;;;;16.64;75.71;99315.84;5032436;28;20028;-78
2022/05/31 02:13:12;;;;;;;18.25;11.18;;;;;;;16.65;75.88;99337.22;5030443;28;20480;-77
2022/05/31 02:15:39;;;;;;;23.40;11.48;;;;;;;16.70;75.98;99354.66;5000625;28;20091;-78
2022/05/31 02:18:05;;;;;;;16.60;10.38;;;;;;;16.86;75.16;99345.19;5016827;28;20021;-78
2022/05/31 02:20:32;;;;;;;17.48;10.90;;;;;;;16.89;74.68;99340.81;5034587;28;20447;-78
2022/05/31 02:23:01;;;;;;;32.33;10.95;;;;;;;16.81;74.74;99349.16;5007895;28;20385;-77
2022/05/31 02:25:30;;;;;;;29.55;12.93;;;;;;;16.77;75.45;99347.47;5029076;28;20033;-78
2022/05/31 02:27:56;;;;;;;18.45;10.30;;;;;;;16.87;75.08;99341.19;5013855;28;20030;-78
2022/05/31 02:30:24;;;;;;;19.58;10.23;;;;;;;17.16;74.11;99349.28;5025540;28;20179;-77
2022/05/31 02:32:50;;;;;;;20.85;9.90;;;;;;;17.03;75.09;99362.84;5029530;28;20029;-78
2022/05/31 02:35:20;;;;;;;18.33;11.45;;;;;;;17.30;74.09;99368.44;5033769;28;20052;-76
2022/05/31 02:37:45;;;;;;;16.50;10.40;;;;;;;17.34;73.97;99363.66;5019691;28;20397;-78
2022/05/31 02:40:12;;;;;;;21.65;10.95;;;;;;;17.37;73.79;99360.03;5014232;28;20504;-77
2022/05/31 02:42:39;;;;;;;19.55;10.82;;;;;;;17.41;73.40;99358.09;5017872;28;20032;-77
2022/05/31 02:45:07;;;;;;;24.65;11.32;;;;;;;17.70;71.77;99347.13;5015743;28;20025;-78
2022/05/31 02:47:33;;;;;;;20.33;10.50;;;;;;;18.05;70.60;99367.75;5031881;28;20095;-77
2022/05/31 02:50:00;;;;;;;21.95;10.65;;;;;;;17.88;70.68;99341.66;5033566;28;20461;-77
2022/05/31 02:52:26;;;;;;;22.23;11.00;;;;;;;17.83;71.08;99354.13;5014878;28;20032;-77
2022/05/31 02:54:52;;;;;;;25.20;11.38;;;;;;;18.02;70.69;99369.28;5015347;28;20480;-78
2022/05/31 02:57:17;;;;;;;23.73;12.48;;;;;;;17.61;71.67;99352.25;5031272;28;20017;-78
2022/05/31 02:59:44;;;;;;;15.25;11.45;;;;;;;17.91;71.27;99374.03;5032227;28;20488;-78
2022/05/31 03:02:13;;;;;;;27.40;11.13;;;;;;;17.88;70.65;99363.50;5033194;28;20036;-78
2022/05/31 03:04:39;;;;;;;22.38;11.75;;;;;;;17.54;72.20;99355.81;5032090;28;20040;-78
2022/05/31 03:07:09;;;;;;;30.77;11.80;;;;;;;17.60;72.14;99373.25;5031479;28;20034;-79
2022/05/31 03:09:37;;;;;;;19.33;10.75;;;;;;;17.75;71.60;99366.59;5033250;28;20033;-79
2022/05/31 03:12:11;;;;;;;29.88;11.57;;;;;;;17.71;71.35;99368.53;5030664;28;20040;-78
2022/05/31 03:14:40;;;;;;;23.55;11.52;;;;;;;17.55;72.33;99368.75;5032155;28;20081;-80
2022/05/31 03:17:14;;;;;;;33.55;12.15;;;;;;;17.43;73.16;99383.97;5032117;28;20045;-79
2022/05/31 03:19:51;;;;;;;17.05;11.93;;;;;;;17.22;74.05;99370.38;5030852;28;20397;-79
2022/05/31 03:22:36;;;;;;;17.90;12.57;;;;;;;16.94;74.88;99366.72;5031264;28;20476;-78
2022/05/31 03:25:11;;;;;;;14.98;12.02;;;;;;;16.70;75.80;99380.06;5027356;28;20364;-78
2022/05/31 03:27:41;;;;;;;21.25;11.70;;;;;;;16.78;75.68;99394.31;4999209;28;20116;-78
2022/05/31 03:30:12;;;;;;;;;;;;;;;16.73;76.27;99414.41;5000168;28;20041;-78
2022/05/31 03:32:39;;;;;;;35.25;11.48;;;;;;;16.30;76.98;99389.91;5025841;28;19920;-77
2022/05/31 03:35:08;;;;;;;21.25;12.02;;;;;;;16.49;76.58;99405.97;5025389;28;20050;-78
2022/05/31 03:37:34;;;;;;;18.25;11.55;;;;;;;16.72;75.89;99407.13;5042271;28;20050;-78
2022/05/31 03:40:01;;;;;;;19.13;10.85;;;;;;;16.91;74.66;99397.75;5027484;28;20514;-77
2022/05/31 03:42:29;;;;;;;20.40;10.98;;;;;;;16.84;74.85;99387.97;5031160;28;20065;-79
2022/05/31 03:44:56;;;;;;;20.63;10.55;;;;;;;16.63;75.21;99376.34;5030491;28;20076;-78
2022/05/31 03:47:23;;;;;;;16.63;10.27;;;;;;;16.61;75.49;99393.63;5023028;28;20029;-77
2022/05/31 03:49:49;;;;;;;17.27;10.38;;;;;;;16.66;76.03;99396.16;5032633;28;20029;-75
2022/05/31 03:52:14;;;;;;;22.02;11.30;;;;;;;16.91;75.74;99412.69;5012983;28;20414;-75
2022/05/31 03:54:40;;;;;;;16.42;10.82;;;;;;;17.05;75.16;99419.78;5026451;28;20048;-73
2022/05/31 03:57:07;;;;;;;18.73;10.43;;;;;;;17.07;75.14;99406.09;5032035;28;20056;-76
2022/05/31 03:59:37;;;;;;;26.38;11.10;;;;;;;17.01;75.16;99411.25;5032445;28;20135;-76
2022/05/31 04:02:09;;;;;;;18.20;11.13;;;;;;;16.75;76.16;99395.06;5032904;28;20115;-76
2022/05/31 04:04:34;;;;;;;15.48;10.90;;;;;;;16.80;75.59;99403.22;5030500;28;20407;-76
2022/05/31 04:07:01;;;;;;;19.17;10.95;;;;;;;16.81;76.05;99399.22;5014591;28;20041;-76
2022/05/31 04:09:29;;;;;;;18.70;10.13;;;;;;;16.91;75.75;99409.03;5029745;28;20121;-76
2022/05/31 04:11:57;;;;;;;20.58;10.40;;;;;;;16.98;76.03;99409.16;5031640;28;20035;-75
2022/05/31 04:14:23;;;;;;;17.20;10.05;;;;;;;17.08;76.46;99419.00;5029819;28;20783;-75
2022/05/31 04:16:49;;;;;;;14.68;10.70;;;;;;;16.92;77.03;99393.72;5011943;28;20026;-75
2022/05/31 04:19:14;;;;;;;22.70;11.40;;;;;;;17.15;76.76;99407.81;5010577;28;20451;-75
2022/05/31 04:21:40;;;;;;;20.73;10.32;;;;;;;17.22;76.07;99405.09;5012073;28;20377;-76
2022/05/31 04:24:11;;;;;;;21.10;11.45;;;;;;;17.11;76.31;99389.97;5013830;28;20175;-76
2022/05/31 04:26:47;;;;;;;20.17;11.32;;;;;;;17.37;76.33;99402.44;5029995;28;20061;-76
2022/05/31 04:29:13;;;;;;;16.92;10.93;;;;;;;17.39;76.83;99423.50;5032208;28;20499;-76
2022/05/31 04:31:38;;;;;;;18.52;11.70;;;;;;;17.23;77.05;99401.06;5030743;28;20063;-76
2022/05/31 04:34:07;;;;;;;15.82;10.13;;;;;;;17.57;76.20;99410.78;5030375;28;20056;-75
2022/05/31 04:36:33;;;;;;;23.77;11.68;;;;;;;17.85;74.91;99432.13;5031900;28;20487;-76
2022/05/31 04:39:00;;;;;;;20.70;11.18;;;;;;;17.98;74.61;99412.91;5029807;28;20034;-76
2022/05/31 04:41:28;;;;;;;19.63;10.18;;;;;;;18.03;73.80;99418.22;5031876;28;20480;-75
2022/05/31 04:43:56;;;;;;;22.23;9.77;;;;;;;18.27;72.97;99421.72;5014105;28;20029;-75
2022/05/31 04:46:24;;;;;;;25.75;10.23;;;;;;;18.44;72.29;99411.78;5012922;28;20039;-75
2022/05/31 04:48:54;;;;;;;18.63;9.00;;;;;;;18.52;70.71;99417.13;5014185;28;20025;-76
2022/05/31 04:51:21;;;;;;;16.70;9.70;;;;;;;18.47;71.99;99428.81;5016679;28;20033;-75
2022/05/31 04:53:47;;;;;;;24.73;10.27;;;;;;;18.43;71.03;99408.13;5012133;28;20408;-75
2022/05/31 04:56:17;;;;;;;15.23;9.55;;;;;;;18.51;69.91;99423.19;5011759;28;20037;-76
2022/05/31 04:58:43;;;;;;;14.50;9.02;;;;;;;18.59;70.25;99413.53;5010557;28;20409;-76
2022/05/31 05:01:08;;;;;;;24.05;9.68;;;;;;;18.89;69.40;99421.06;5011452;28;20026;-75
2022/05/31 05:03:35;;;;;;;20.02;9.20;;;;;;;18.97;68.72;99423.97;5026883;28;20026;-76
2022/05/31 05:06:03;;;;;;;25.80;9.68;;;;;;;19.27;68.06;99415.28;5028909;28;20116;-76
2022/05/31 05:08:29;;;;;;;17.05;9.02;;;;;;;19.46;66.85;99419.84;5029853;28;20045;-76
2022/05/31 05:10:55;;;;;;;22.67;9.15;;;;;;;19.60;66.22;99404.88;5030129;28;20053;-76
2022/05/31 05:13:21;;;;;;;24.27;9.73;;;;;;;19.66;66.18;99411.00;5031747;28;20454;-76
2022/05/31 05:15:47;;;;;;;14.90;9.15;;;;;;;19.88;65.87;99431.78;5029591;28;20025;-76
2022/05/31 05:18:12;;;;;;;20.48;9.88;;;;;;;20.15;65.23;99419.28;5031694;28;20108;-76
2022/05/31 05:20:39;;;;;;;13.77;9.30;;;;;;;20.25;65.27;99417.72;5030997;28;20034;-76
2022/05/31 05:23:07;;;;;;;15.95;9.25;;;;;;;20.39;64.31;99420.56;5030470;28;20033;-76
2022/05/31 05:25:33;;;;;;;17.33;10.35;;;;;;;20.50;64.60;99445.34;5029675;28;20499;-76
2022/05/31 05:27:59;;;;;;;12.55;7.63;;;;;;;20.75;63.02;99425.44;5031349;28;20022;-76
2022/05/31 05:30:39;;;;;;;12.05;8.45;;;;;;;20.89;62.72;99434.03;5025479;28;20095;-81
2022/05/31 05:33:09;;;;;;;19.30;8.52;;;;;;;21.20;61.07;99435.59;5004817;28;20124;-75
2022/05/31 05:35:35;;;;;;;12.75;9.18;;;;;;;21.12;60.59;99429.13;5016694;28;20041;-74
2022/05/31 05:38:01;;;;;;;15.82;8.68;;;;;;;21.23;62.24;99441.28;5030942;28;20083;-77
2022/05/31 05:40:27;;;;;;;14.60;8.63;;;;;;;21.58;60.87;99441.59;5029385;28;20033;-77
2022/05/31 05:42:53;;;;;;;13.43;9.60;;;;;;;21.62;59.74;99433.06;5030054;28;20029;-75
2022/05/31 05:45:19;;;;;;;20.00;8.30;;;;;;;22.01;59.38;99437.78;5029177;28;20033;-74
2022/05/31 05:47:47;;;;;;;14.57;8.52;;;;;;;22.26;59.04;99449.06;5026586;28;20111;-79
2022/05/31 05:50:13;;;;;;;16.05;9.82;;;;;;;22.11;59.04;99444.69;5024498;28;20458;-80
2022/05/31 05:52:40;;;;;;;12.25;8.38;;;;;;;22.04;58.98;99456.09;5023470;28;20029;-78
2022/05/31 05:55:06;;;;;;;22.00;8.82;;;;;;;22.20;59.54;99442.16;5029260;28;20017;-81
2022/05/31 05:57:32;;;;;;;17.55;8.73;;;;;;;22.27;59.00;99445.00;5022323;28;20060;-77
2022/05/31 05:59:57;;;;;;;12.63;8.63;;;;;;;22.19;59.33;99445.44;5029112;28;20056;-73
2022/05/31 06:02:29;;;;;;;11.65;8.05;;;;;;;22.60;58.56;99444.00;5027911;28;20095;-74
2022/05/31 06:05:07;;;;;;;19.38;9.15;;;;;;;22.63;57.27;99443.16;5029687;28;20112;-75
2022/05/31 06:07:42;;;;;;;15.70;7.80;;;;;;;22.88;56.60;99445.00;5028426;28;20029;-76
2022/05/31 06:10:18;;;;;;;10.70;8.00;;;;;;;22.97;56.10;99436.78;5027275;28;20415;-74
2022/05/31 06:13:00;;;;;;;18.27;9.30;;;;;;;22.55;56.25;99434.66;5026101;28;20025;-74
2022/05/31 06:15:31;;;;;;;12.52;7.95;;;;;;;21.93;58.55;99441.94;5028663;28;20480;-71
2022/05/31 06:18:01;;;;;;;20.73;9.48;;;;;;;22.28;58.63;99435.22;5030994;28;20031;-73
2022/05/31 06:20:29;;;;;;;23.47;10.80;;;;;;;22.36;57.74;99432.34;5030156;28;20120;-73
2022/05/31 06:22:55;;;;;;;14.88;7.90;;;;;;;22.51;57.34;99433.09;5031271;28;20025;-73
2022/05/31 06:25:21;;;;;;;16.85;8.73;;;;;;;22.68;57.35;99434.16;5031432;28;20532;-73
2022/05/31 06:27:47;;;;;;;13.07;8.27;;;;;;;23.15;57.49;99428.06;5023541;28;20134;-76
2022/05/31 06:30:13;;;;;;;14.13;7.90;;;;;;;23.45;55.30;99431.44;5028200;28;20037;-76
2022/05/31 06:32:38;;;;;;;14.45;9.40;;;;;;;23.58;55.39;99423.94;5031704;28;20522;-74
2022/05/31 06:35:05;;;;;;;10.93;7.85;;;;;;;23.74;55.05;99423.34;5031234;28;20148;-72
2022/05/31 06:37:30;;;;;;;13.98;8.70;;;;;;;23.89;54.77;99432.56;5027151;28;20091;-72
2022/05/31 06:39:57;;;;;;;12.05;7.68;;;;;;;23.97;53.67;99416.13;5033407;28;20456;-73
2022/05/31 06:42:22;;;;;;;17.50;8.27;;;;;;;24.21;53.74;99419.91;5031711;28;20029;-74
2022/05/31 06:44:48;;;;;;;13.15;6.97;;;;;;;24.31;52.81;99420.97;5031358;28;20052;-74
2022/05/31 06:47:14;;;;;;;18.30;8.35;;;;;;;24.27;51.33;99422.28;5031636;28;20484;-74
2022/05/31 06:49:41;;;;;;;13.90;7.18;;;;;;;24.45;51.34;99428.53;5029756;28;20017;-73
2022/05/31 06:57:43;;;;;;;15.25;7.30;;;;;;;24.38;52.08;99408.66;5021510;28;20036;-73
2022/05/31 07:00:14;;;;;;;11.88;7.70;;;;;;;24.70;51.00;99417.94;5034139;28;20052;-76
2022/05/31 07:02:39;;;;;;;11.38;7.20;;;;;;;24.87;50.20;99419.72;5041389;28;20113;-74
2022/05/31 07:05:06;;;;;;;15.60;7.07;;;;;;;24.55;50.22;99409.59;5022412;28;20117;-76
2022/05/31 07:07:32;;;;;;;10.50;6.95;;;;;;;24.78;50.34;99410.88;5028560;28;20042;-75
2022/05/31 07:09:57;;;;;;;12.20;7.78;;;;;;;25.27;50.23;99409.59;5018582;28;20503;-75
2022/05/31 07:12:23;;;;;;;13.60;7.40;;;;;;;25.50;48.78;99411.66;5033963;28;20037;-75
2022/05/31 07:14:49;;;;;;;8.50;7.13;;;;;;;25.42;49.20;99407.28;5042425;28;20052;-76
2022/05/31 07:17:14;;;;;;;8.10;7.10;;;;;;;25.50;49.44;99405.94;5029138;28;20057;-77
2022/05/31 07:19:42;;;;;;;15.75;7.90;;;;;;;25.46;49.71;99416.59;5027476;28;20029;-75
2022/05/31 07:22:07;;;;;;;11.48;7.65;;;;;;;25.54;50.01;99403.78;5023782;28;20028;-75
2022/05/31 07:24:33;;;;;;;10.18;7.55;;;;;;;25.71;49.08;99401.03;5028364;28;20037;-76
2022/05/31 07:26:59;;;;;;;16.80;7.65;;;;;;;25.99;49.44;99404.50;5029844;28;20061;-76
2022/05/31 07:29:25;;;;;;;19.10;7.60;;;;;;;25.80;47.64;99392.63;5020472;28;20039;-76
2022/05/31 07:31:50;;;;;;;11.20;7.72;;;;;;;25.65;48.15;99398.66;5030006;28;20098;-76
2022/05/31 07:34:17;;;;;;;17.80;7.25;;;;;;;26.06;48.67;99392.88;5031006;28;20053;-76
2022/05/31 07:36:43;;;;;;;11.60;7.47;;;;;;;26.02;48.37;99389.28;5030644;28;20021;-76
2022/05/31 07:39:12;;;;;;;11.85;7.53;;;;;;;26.03;47.46;99390.91;5031623;28;20131;-75
2022/05/31 07:41:37;;;;;;;12.15;8.13;;;;;;;26.10;47.40;99395.66;5026781;28;20171;-76
2022/05/31 07:44:03;;;;;;;9.77;8.27;;;;;;;26.17;47.10;99396.28;5028054;28;20108;-74
2022/05/31 07:46:29;;;;;;;9.85;7.30;;;;;;;26.31;47.88;99385.81;5026954;28;20175;-75
2022/05/31 07:48:58;;;;;;;13.07;7.65;;;;;;;26.43;48.06;99395.75;5030852;28;20411;-74
2022/05/31 07:51:25;;;;;;;14.38;7.20;;;;;;;26.59;47.60;99384.28;5031139;28;20028;-76
2022/05/31 07:53:51;;;;;;;16.58;8.45;;;;;;;26.45;47.13;99384.63;5031759;28;20472;-78
2022/05/31 07:56:18;;;;;;;16.73;7.85;;;;;;;26.39;47.98;99384.34;5031747;28;20026;-77
2022/05/31 07:58:45;;;;;;;12.45;7.03;;;;;;;26.78;46.92;99382.56;5029625;28;20037;-76
2022/05/31 08:01:13;;;;;;;10.05;6.88;;;;;;;27.08;47.19;99382.66;5021861;28;20119;-76
2022/05/31 08:03:40;;;;;;;14.95;8.25;;;;;;;26.96;45.74;99389.94;5030787;28;20033;-76
2022/05/31 08:06:13;;;;;;;9.73;7.60;;;;;;;27.20;45.37;99378.25;5017741;28;20042;-76
2022/05/31 08:08:39;;;;;;;36.55;8.68;;;;;;;27.23;46.69;99385.94;5021690;28;21070;-76
2022/05/31 08:11:21;;;;;;;10.57;7.38;;;;;;;27.03;45.65;99392.63;5031774;28;20033;-76
2022/05/31 08:13:47;;;;;;;28.75;8.77;;;;;;;27.39;45.79;99378.53;5026884;28;20508;-76
2022/05/31 08:16:16;;;;;;;13.00;7.43;;;;;;;27.54;44.84;99379.78;5024274;28;20049;-76
2022/05/31 08:18:42;;;;;;;7.72;6.85;;;;;;;26.94;45.88;99386.72;5027624;28;20157;-76
2022/05/31 08:21:12;;;;;;;10.15;7.68;;;;;;;27.11;45.83;99381.75;5027917;28;20480;-76
2022/05/31 08:23:38;;;;;;;11.57;6.65;;;;;;;27.66;45.49;99383.94;5031449;28;20523;-76
2022/05/31 08:26:04;;;;;;;8.65;6.55;;;;;;;27.89;44.66;99384.91;5022856;28;20064;-77
2022/05/31 08:28:31;;;;;;;11.13;7.03;;;;;;;28.03;44.93;99372.97;5025812;28;20420;-76
2022/05/31 08:31:00;;;;;;;12.20;7.38;;;;;;;28.40;44.48;99386.22;5019850;28;20536;-78
2022/05/31 08:33:26;;;;;;;17.75;8.20;;;;;;;28.23;44.03;99383.47;5021205;28;20029;-73
2022/05/31 08:35:51;;;;;;;9.52;7.13;;;;;;;28.58;44.00;99382.75;5024929;28;20045;-77
2022/05/31 08:38:17;;;;;;;8.93;7.90;;;;;;;28.15;43.55;99374.25;5023145;28;20100;-77
2022/05/31 08:40:56;;;;;;;17.80;8.32;;;;;;;27.82;44.92;99368.69;5028350;28;20033;-78
2022/05/31 08:43:29;;;;;;;9.03;7.47;;;;;;;27.45;44.20;99368.13;5017397;28;20469;-75
2022/05/31 08:46:01;;;;;;;10.15;8.00;;;;;;;27.26;44.75;99364.13;5020387;28;20056;-75
2022/05/31 08:48:32;;;;;;;11.65;7.82;;;;;;;27.66;44.91;99368.78;5027674;28;20044;-75
2022/05/31 08:57:08;;;;;;;9.60;7.05;;;;;;;28.26;41.65;99365.31;5029378;28;20044;-76
2022/05/31 08:59:51;;;;;;;12.63;7.70;;;;;;;28.45;42.44;99366.31;5028523;28;20045;-74
2022/05/31 09:02:23;;;;;;;16.67;7.82;;;;;;;28.65;42.42;99356.63;5026512;28;20029;-74
2022/05/31 09:05:15;;;;;;;12.52;7.05;;;;;;;28.50;43.09;99367.03;5028316;28;20519;-74
2022/05/31 09:07:51;;;;;;;11.63;7.53;;;;;;;28.93;41.85;99356.16;5023092;28;20379;-74
2022/05/31 09:10:38;;;;;;;10.48;7.28;;;;;;;29.27;41.68;99358.19;5023517;28;20040;-74
2022/05/31 09:13:10;;;;;;;18.20;7.60;;;;;;;29.50;41.96;99370.56;5025116;28;20033;-74
2022/05/31 09:15:52;;;;;;;15.45;7.90;;;;;;;29.45;41.17;99361.72;5028505;28;20037;-73
2022/05/31 09:18:39;;;;;;;18.02;7.45;;;;;;;29.16;41.67;99369.28;5028508;28;20036;-72
2022/05/31 09:21:12;;;;;;;9.55;7.97;;;;;;;29.37;41.13;99364.03;5011475;28;20045;-72
2022/05/31 09:23:38;;;;;;;11.63;7.00;;;;;;;29.58;41.03;99350.13;5031223;28;20060;-72
2022/05/31 09:26:09;;;;;;;11.48;6.80;;;;;;;29.81;39.81;99351.72;5030320;28;20134;-72
2022/05/31 09:28:42;;;;;;;11.02;7.72;;;;;;;28.98;40.81;99350.59;5020822;28;20033;-72
2022/05/31 09:31:34;;;;;;;18.67;8.02;;;;;;;28.99;40.67;99352.22;5028085;28;20469;-74
2022/05/31 09:34:06;;;;;;;12.13;7.35;;;;;;;28.81;40.92;99352.00;5029368;28;20048;-72
2022/05/31 09:36:44;;;;;;;14.13;7.63;;;;;;;28.51;41.84;99357.13;5035256;28;20071;-72
2022/05/31 09:39:10;;;;;;;10.02;6.68;;;;;;;29.38;41.24;99345.47;5030878;28;20064;-72
2022/05/31 09:41:49;;;;;;;17.27;7.68;;;;;;;29.44;39.94;99342.84;5032963;28;20113;-72
2022/05/31 09:44:35;;;;;;;12.40;7.10;;;;;;;29.55;39.79;99343.22;5034865;28;20023;-72
2022/05/31 09:47:26;;;;;;;16.42;7.03;;;;;;;29.83;37.75;99321.16;5032151;28;20022;-72
2022/05/31 09:49:53;;;;;;;19.13;6.10;;;;;;;29.93;37.21;99333.50;5025424;28;20026;-72
2022/05/31 09:52:36;;;;;;;15.68;7.43;;;;;;;29.05;38.05;99332.28;5026602;28;20046;-72
2022/05/31 09:58:51;;;;;;;19.73;6.85;;;;;;;29.62;37.58;99325.66;5029201;28;20087;-72
2022/05/31 10:01:29;;;;;;;8.32;6.47;;;;;;;30.10;38.24;99328.34;5023197;28;20133;-74
2022/05/31 10:04:05;;;;;;;13.43;6.50;;;;;;;30.05;36.63;99308.78;5033416;28;20037;-72
2022/05/31 10:06:31;;;;;;;8.13;6.60;;;;;;;29.88;37.91;99302.44;5034637;28;20112;-72
2022/05/31 10:09:14;;;;;;;20.48;7.25;;;;;;;30.20;38.71;99305.31;5034501;28;20036;-72
2022/05/31 10:11:47;;;;;;;24.75;7.57;;;;;;;30.12;37.60;99299.03;5025793;28;20432;-73
2022/05/31 10:14:23;;;;;;;11.70;6.65;;;;;;;29.83;37.79;99295.22;5025230;28;20028;-72
2022/05/31 10:16:49;;;;;;;11.95;6.20;;;;;;;29.62;37.81;99296.06;5032600;28;20112;-71
2022/05/31 10:19:41;;;;;;;10.65;6.50;;;;;;;29.96;37.44;99302.94;5029468;28;20496;-72
2022/05/31 10:22:18;;;;;;;17.45;6.90;;;;;;;30.09;36.61;99291.31;5025449;28;20080;-72
2022/05/31 10:24:43;;;;;;;11.05;5.75;;;;;;;30.44;36.15;99299.75;5028212;28;20029;-73
2022/05/31 10:27:13;;;;;;;17.05;6.65;;;;;;;30.60;35.04;99298.66;5029722;28;20491;-72
2022/05/31 10:29:53;;;;;;;10.82;6.22;;;;;;;30.53;33.91;99267.25;5022782;28;20022;-74
2022/05/31 10:32:42;;;;;;;10.50;6.07;;;;;;;30.90;33.42;99299.06;5025637;28;20110;-72
2022/05/31 10:35:19;;;;;;;7.87;5.17;;;;;;;31.09;33.67;99294.09;5026388;28;20461;-73
2022/05/31 10:37:47;;;;;;;10.10;4.90;;;;;;;31.37;32.62;99299.84;5027611;28;20022;-73
2022/05/31 10:40:18;;;;;;;9.85;4.88;;;;;;;30.72;32.88;99304.81;5022289;28;20035;-73
2022/05/31 10:42:49;;;;;;;9.30;6.03;;;;;;;30.46;34.86;99290.63;5019264;28;20092;-72
2022/05/31 10:45:27;;;;;;;22.25;6.55;;;;;;;30.92;34.31;99299.38;5025579;28;20041;-73
2022/05/31 10:47:57;;;;;;;8.07;6.25;;;;;;;30.67;34.93;99301.28;5028568;28;20091;-73
2022/05/31 10:50:33;;;;;;;10.02;5.97;;;;;;;30.73;33.90;99294.88;5024300;28;23311;-73
2022/05/31 10:53:17;;;;;;;9.82;5.28;;;;;;;31.10;32.94;99286.22;5029971;28;20136;-73
2022/05/31 10:56:15;;;;;;;7.38;4.63;;;;;;;31.27;31.79;99289.59;5032335;28;20095;-72
2022/05/31 10:58:41;;;;;;;9.48;6.18;;;;;;;31.06;34.07;99282.69;5024466;28;20033;-75
2022/05/31 11:01:40;;;;;;;14.20;5.30;;;;;;;31.07;33.35;99252.53;5036371;28;20131;-74
2022/05/31 11:04:46;;;;;;;30.30;6.43;;;;;;;31.36;32.71;99280.09;5029392;28;20057;-74
2022/05/31 11:07:31;;;;;;;9.32;5.38;;;;;;;31.39;32.96;99270.50;5022235;28;20064;-74
2022/05/31 11:12:50;;;;;;;16.00;5.25;;;;;;;31.44;32.76;99261.16;5026482;28;20044;-74
2022/05/31 11:15:15;;;;;;;7.55;5.28;;;;;;;31.68;32.84;99254.66;5031920;28;20033;-73
2022/05/31 11:18:22;;;;;;;13.13;6.10;;;;;;;31.93;31.79;99241.09;5031977;28;20092;-74
2022/05/31 11:21:12;;;;;;;16.92;5.85;;;;;;;31.91;31.88;99232.13;4971867;28;20112;-72
2022/05/31 11:23:49;;;;;;;14.27;5.57;;;;;;;31.97;31.75;99238.81;5020060;28;20021;-72
2022/05/31 11:26:49;;;;;;;9.38;5.30;;;;;;;31.91;31.86;99232.91;5026563;28;20103;-74
2022/05/31 11:29:17;;;;;;;;;;;;;;;31.81;31.54;99224.78;5024112;28;20136;-72
2022/05/31 11:31:54;;;;;;;13.40;5.18;;;;;;;31.40;31.57;99222.97;5029794;28;19940;-73
2022/05/31 11:34:44;;;;;;;13.90;5.85;;;;;;;31.46;31.26;99223.91;5023442;28;20061;-72
2022/05/31 11:37:30;;;;;;;8.73;5.88;;;;;;;31.42;31.44;99229.06;5030264;28;20055;-72
2022/05/31 11:40:03;;;;;;;9.77;5.40;;;;;;;31.46;30.88;99228.91;5020248;28;20036;-72
2022/05/31 11:42:53;;;;;;;10.35;4.57;;;;;;;31.85;31.26;99220.41;5021316;28;20021;-72
2022/05/31 11:45:52;;;;;;;7.63;4.95;;;;;;;32.08;30.42;99220.94;5026927;28;20036;-72
2022/05/31 11:48:33;;;;;;;12.05;4.88;;;;;;;32.46;30.28;99221.50;5028245;28;20021;-72
2022/05/31 11:51:04;;;;;;;8.30;5.40;;;;;;;32.54;28.44;99222.75;5021879;28;20044;-72
2022/05/31 11:54:17;;;;;;;11.27;4.32;;;;;;;32.53;28.24;99229.81;5030197;28;20451;-73
2022/05/31 11:56:58;;;;;;;17.40;5.45;;;;;;;32.42;28.41;99235.38;5028267;28;20576;-72
2022/05/31 11:59:36;;;;;;;11.77;5.13;;;;;;;32.80;28.25;99230.88;5030357;28;20419;-72
2022/05/31 12:02:14;;;;;;;9.55;4.97;;;;;;;33.01;28.86;99231.06;5030041;28;20037;-72